createdAt,value
2018-09-15T00:00:55.040Z,88.70
2018-09-15T00:03:24.671Z,91.20
2018-09-15T00:05:54.431Z,91.80
2018-09-15T00:08:23.651Z,90.90
2018-09-15T00:10:52.906Z,89.80
2018-09-15T00:13:23.204Z,91.70
2018-09-15T00:15:52.406Z,91.90
2018-09-15T00:18:21.601Z,91.10
2018-09-15T00:20:50.834Z,91.60
2018-09-15T00:23:20.033Z,91.70
2018-09-15T00:25:49.252Z,90.70
2018-09-15T00:28:18.485Z,90.60
2018-09-15T00:30:47.676Z,90.40
2018-09-15T00:33:16.860Z,90.90
2018-09-15T00:35:46.171Z,90.30
2018-09-15T00:38:15.389Z,90.30
2018-09-15T00:40:44.581Z,90.30
2018-09-15T00:43:13.781Z,91.00
2018-09-15T00:45:43.259Z,91.50
2018-09-15T00:48:12.459Z,91.10
2018-09-15T00:50:41.715Z,91.00
2018-09-15T00:53:10.890Z,92.20
2018-09-15T00:55:40.087Z,91.30
2018-09-15T00:58:09.503Z,91.20
2018-09-15T01:00:38.816Z,91.10
2018-09-15T01:03:08.053Z,92.10
2018-09-15T01:05:37.271Z,92.60
2018-09-15T01:08:06.479Z,93.50
2018-09-15T01:10:35.659Z,92.40
2018-09-15T01:13:04.871Z,91.90
2018-09-15T01:15:34.043Z,92.00
2018-09-15T01:18:03.577Z,91.90
2018-09-15T01:20:32.839Z,91.90
2018-09-15T01:23:02.017Z,93.10
2018-09-15T01:25:31.203Z,94.00
2018-09-15T01:28:00.427Z,94.20
2018-09-15T01:30:31.955Z,95.40
2018-09-15T01:33:01.189Z,95.80
2018-09-15T01:35:30.363Z,95.80
2018-09-15T01:37:59.531Z,96.20
2018-09-15T01:40:28.868Z,96.20
2018-09-15T01:42:58.065Z,95.20
2018-09-15T01:45:27.265Z,96.50
2018-09-15T01:47:56.735Z,97.10
2018-09-15T01:50:25.919Z,96.10
2018-09-15T01:52:55.103Z,96.10
2018-09-15T01:55:24.314Z,97.50
2018-09-15T01:57:53.496Z,95.60
2018-09-15T02:00:22.699Z,97.20
2018-09-15T02:02:52.515Z,97.70
2018-09-15T02:05:21.723Z,98.00
2018-09-15T02:07:50.899Z,96.20
2018-09-15T02:10:20.116Z,95.90
2018-09-15T02:12:49.315Z,98.40
2018-09-15T02:15:18.507Z,96.60
2018-09-15T02:17:47.772Z,98.30
2018-09-15T02:20:16.969Z,98.30
2018-09-15T02:22:48.755Z,97.20
2018-09-15T02:25:17.908Z,97.40
2018-09-15T02:27:47.092Z,98.20
2018-09-15T02:30:16.430Z,97.10
2018-09-15T02:32:45.604Z,97.70
2018-09-15T02:35:14.840Z,97.70
2018-09-15T02:37:44.049Z,98.40
2018-09-15T02:40:13.251Z,97.90
2018-09-15T02:42:42.581Z,98.80
2018-09-15T02:45:11.871Z,97.40
2018-09-15T02:47:41.081Z,96.80
2018-09-15T02:50:10.320Z,96.60
2018-09-15T02:52:39.511Z,97.30
2018-09-15T02:55:08.841Z,97.40
2018-09-15T02:57:38.040Z,96.40
2018-09-15T03:00:07.284Z,98.90
2018-09-15T03:02:36.643Z,98.10
2018-09-15T03:05:06.236Z,99.90
2018-09-15T03:07:35.609Z,98.50
2018-09-15T03:10:04.844Z,97.70
2018-09-15T03:12:34.089Z,98.10
2018-09-15T03:15:03.327Z,97.20
2018-09-15T03:17:32.763Z,96.80
2018-09-15T03:20:01.963Z,96.60
2018-09-15T03:22:31.438Z,96.50
2018-09-15T03:25:00.608Z,97.00
2018-09-15T03:27:29.815Z,97.10
2018-09-15T03:29:59.124Z,97.10
2018-09-15T03:32:28.588Z,99.30
2018-09-15T03:34:57.768Z,99.30
2018-09-15T03:37:27.412Z,99.00
2018-09-15T03:39:56.588Z,97.50
2018-09-15T03:42:25.792Z,99.10
2018-09-15T03:44:55.022Z,99.20
2018-09-15T03:47:24.203Z,98.80
2018-09-15T03:49:53.487Z,98.50
2018-09-15T03:52:22.751Z,98.10
2018-09-15T03:54:51.952Z,97.80
2018-09-15T03:57:21.136Z,97.30
2018-09-15T03:59:50.376Z,97.10
2018-09-15T04:02:19.580Z,97.80
2018-09-15T04:04:48.771Z,97.00
2018-09-15T04:07:18.504Z,96.90
2018-09-15T04:09:47.703Z,96.80
2018-09-15T04:12:16.901Z,96.80
2018-09-15T04:14:46.492Z,97.00
2018-09-15T04:17:15.684Z,96.80
2018-09-15T04:19:45.023Z,96.90
2018-09-15T04:22:14.216Z,97.30
2018-09-15T04:24:43.384Z,98.30
2018-09-15T04:27:12.564Z,97.80
2018-09-15T04:29:41.781Z,97.70
2018-09-15T04:32:10.971Z,98.70
2018-09-15T04:34:40.176Z,98.30
2018-09-15T04:37:09.727Z,97.80
2018-09-15T04:39:38.915Z,97.00
2018-09-15T04:42:08.119Z,97.20
2018-09-15T04:44:37.375Z,97.00
2018-09-15T04:47:06.573Z,97.00
2018-09-15T04:49:35.768Z,97.20
2018-09-15T04:52:05.115Z,97.00
2018-09-15T04:54:34.300Z,96.10
2018-09-15T04:57:03.556Z,96.40
2018-09-15T04:59:33.431Z,97.10
2018-09-15T05:02:02.631Z,97.00
2018-09-15T05:04:31.825Z,96.70
2018-09-15T05:07:01.157Z,96.20
2018-09-15T05:09:30.803Z,96.80
2018-09-15T05:12:00.079Z,97.00
2018-09-15T05:14:29.300Z,97.60
2018-09-15T05:16:58.500Z,97.40
2018-09-15T05:19:27.675Z,97.00
2018-09-15T05:21:57.371Z,97.00
2018-09-15T05:24:26.564Z,96.50
2018-09-15T05:26:55.759Z,97.20
2018-09-15T05:29:24.984Z,97.60
2018-09-15T05:31:54.168Z,97.80
2018-09-15T05:34:23.353Z,97.70
2018-09-15T05:36:52.904Z,97.70
2018-09-15T05:39:22.096Z,97.70
2018-09-15T05:41:51.279Z,97.30
2018-09-15T05:44:20.843Z,98.20
2018-09-15T05:46:50.032Z,98.40
2018-09-15T05:49:19.245Z,98.10
2018-09-15T05:51:48.459Z,98.00
2018-09-15T05:54:17.659Z,97.70
2018-09-15T05:56:46.844Z,97.40
2018-09-15T05:59:16.060Z,96.90
2018-09-15T06:01:45.295Z,97.60
2018-09-15T06:04:14.568Z,97.30
2018-09-15T06:06:43.910Z,97.20
2018-09-15T06:09:13.112Z,97.30
2018-09-15T06:11:43.031Z,96.80
2018-09-15T06:14:12.239Z,97.10
2018-09-15T06:16:41.431Z,96.90
2018-09-15T06:19:10.616Z,96.20
2018-09-15T06:21:39.835Z,96.00
2018-09-15T06:24:09.023Z,95.90
2018-09-15T06:26:38.276Z,95.70
2018-09-15T06:29:07.609Z,95.60
2018-09-15T06:31:36.863Z,95.70
2018-09-15T06:34:06.412Z,95.70
2018-09-15T06:36:35.634Z,95.20
2018-09-15T06:39:07.940Z,95.10
2018-09-15T06:41:37.528Z,95.10
2018-09-15T06:44:06.827Z,95.00
2018-09-15T06:46:36.059Z,94.70
2018-09-15T06:49:05.451Z,94.40
2018-09-15T06:51:34.647Z,94.10
2018-09-15T06:54:03.883Z,93.60
2018-09-15T06:56:33.399Z,93.50
2018-09-15T06:59:02.615Z,93.60
2018-09-15T07:01:31.816Z,93.50
2018-09-15T07:04:01.343Z,93.60
2018-09-15T07:06:30.557Z,93.50
2018-09-15T07:08:59.740Z,93.70
2018-09-15T07:11:29.263Z,93.80
2018-09-15T07:13:58.807Z,93.80
2018-09-15T07:16:27.999Z,93.50
2018-09-15T07:18:57.371Z,93.50
2018-09-15T07:21:26.613Z,93.60
2018-09-15T07:23:55.807Z,92.90
2018-09-15T07:26:25.047Z,92.30
2018-09-15T07:28:54.279Z,91.10
2018-09-15T07:31:23.479Z,91.10
2018-09-15T07:33:53.015Z,90.50
2018-09-15T07:36:22.204Z,90.00
2018-09-15T07:38:51.391Z,88.70
2018-09-15T07:41:20.601Z,87.30
2018-09-15T07:43:49.780Z,86.00
2018-09-15T07:46:18.983Z,87.80
2018-09-15T07:48:48.224Z,87.00
2018-09-15T07:51:17.768Z,87.10
2018-09-15T07:53:46.934Z,85.40
2018-09-15T07:56:16.374Z,85.20
2018-09-15T07:58:45.575Z,84.70
2018-09-15T08:01:14.747Z,80.80
2018-09-15T08:03:44.016Z,80.90
2018-09-15T08:06:13.503Z,78.70
2018-09-15T08:08:42.683Z,80.60
2018-09-15T08:11:12.058Z,80.90
2018-09-15T08:13:41.154Z,80.70
2018-09-15T08:16:10.545Z,78.50
2018-09-15T08:18:40.264Z,74.80
2018-09-15T08:21:09.529Z,75.40
2018-09-15T08:23:38.717Z,71.70
2018-09-15T08:26:08.249Z,73.50
2018-09-15T08:28:37.423Z,74.00
2018-09-15T08:31:06.760Z,74.50
2018-09-15T08:33:35.977Z,74.10
2018-09-15T08:36:05.175Z,72.80
2018-09-15T08:38:34.435Z,72.20
2018-09-15T08:41:04.150Z,71.70
2018-09-15T08:43:33.618Z,73.00
2018-09-15T08:46:02.876Z,72.80
2018-09-15T08:48:32.071Z,73.10
2018-09-15T08:51:01.301Z,71.70
2018-09-15T08:53:30.568Z,71.20
2018-09-15T08:55:59.814Z,71.90
2018-09-15T08:58:28.985Z,74.60
2018-09-15T09:00:58.177Z,74.10
2018-09-15T09:03:27.979Z,74.50
2018-09-15T09:05:57.167Z,74.70
2018-09-15T09:08:26.634Z,73.30
2018-09-15T09:10:55.852Z,70.70
2018-09-15T09:13:25.023Z,69.80
2018-09-15T09:15:54.203Z,71.50
2018-09-15T09:18:23.935Z,70.30
2018-09-15T09:20:53.124Z,69.70
2018-09-15T09:23:22.287Z,67.80
2018-09-15T09:25:51.605Z,67.40
2018-09-15T09:28:22.313Z,68.10
2018-09-15T09:30:51.895Z,70.30
2018-09-15T09:33:21.209Z,68.90
2018-09-15T09:35:50.455Z,67.00
2018-09-15T09:38:19.731Z,70.90
2018-09-15T09:40:50.338Z,67.10
2018-09-15T09:43:19.723Z,65.60
2018-09-15T09:45:49.171Z,63.90
2018-09-15T09:48:18.598Z,60.70
2018-09-15T09:50:49.163Z,58.90
2018-09-15T09:53:18.667Z,59.90
2018-09-15T09:55:47.991Z,58.70
2018-09-15T09:58:17.245Z,55.80
2018-09-15T10:00:51.895Z,53.40
2018-09-15T10:03:21.422Z,53.50
2018-09-15T10:05:51.471Z,54.70
2018-09-15T10:08:20.700Z,54.10
2018-09-15T10:10:50.215Z,53.40
2018-09-15T10:13:19.427Z,55.10
2018-09-15T10:15:48.795Z,52.80
2018-09-15T10:18:20.273Z,50.60
2018-09-15T10:20:50.568Z,52.40
2018-09-15T10:23:19.772Z,51.50
2018-09-15T10:25:49.084Z,50.80
2018-09-15T10:28:18.311Z,50.90
2018-09-15T10:30:47.492Z,49.60
2018-09-15T10:33:17.067Z,48.20
2018-09-15T10:35:47.559Z,49.60
2018-09-15T10:38:16.831Z,50.00
2018-09-15T10:40:50.211Z,49.30
2018-09-15T10:43:19.423Z,48.70
2018-09-15T10:45:48.753Z,49.10
2018-09-15T10:48:17.951Z,51.50
2018-09-15T10:50:47.123Z,51.40
2018-09-15T10:53:16.396Z,51.30
2018-09-15T10:55:45.934Z,48.10
2018-09-15T10:58:15.284Z,50.00
2018-09-15T11:00:44.505Z,48.40
2018-09-15T11:03:13.885Z,49.40
2018-09-15T11:05:43.116Z,47.90
2018-09-15T11:08:13.403Z,45.00
2018-09-15T11:10:42.644Z,45.20
2018-09-15T11:13:11.897Z,42.50
2018-09-15T11:15:41.629Z,44.80
2018-09-15T11:18:10.843Z,45.40
2018-09-15T11:20:40.547Z,45.20
2018-09-15T11:23:09.814Z,46.20
2018-09-15T11:25:39.327Z,42.90
2018-09-15T11:28:08.507Z,38.30
2018-09-15T11:30:37.683Z,37.60
2018-09-15T11:33:07.349Z,37.50
2018-09-15T11:35:36.527Z,38.80
2018-09-15T11:38:05.792Z,40.60
2018-09-15T11:40:35.012Z,41.70
2018-09-15T11:43:04.247Z,41.50
2018-09-15T11:45:33.444Z,42.00
2018-09-15T11:48:04.004Z,43.00
2018-09-15T11:50:33.175Z,41.50
2018-09-15T11:53:02.664Z,46.00
2018-09-15T11:55:31.915Z,42.10
2018-09-15T11:58:01.114Z,36.10
2018-09-15T12:00:32.635Z,35.90
2018-09-15T12:03:02.928Z,35.90
2018-09-15T12:05:33.404Z,34.30
2018-09-15T12:08:02.701Z,32.60
2018-09-15T12:10:31.953Z,31.90
2018-09-15T12:13:01.193Z,31.40
2018-09-15T12:15:30.356Z,31.10
2018-09-15T12:17:59.623Z,32.90
2018-09-15T12:20:28.931Z,32.60
2018-09-15T12:22:58.280Z,30.80
2018-09-15T12:25:28.775Z,30.50
2018-09-15T12:27:58.026Z,32.00
2018-09-15T12:30:29.628Z,31.30
2018-09-15T12:32:58.859Z,30.70
2018-09-15T12:35:32.123Z,30.20
2018-09-15T12:38:01.460Z,30.60
2018-09-15T12:40:30.700Z,30.30
2018-09-15T12:43:01.271Z,29.50
2018-09-15T12:45:30.564Z,31.30
2018-09-15T12:47:59.848Z,29.90
2018-09-15T12:50:29.360Z,29.40
2018-09-15T12:52:58.731Z,32.00
2018-09-15T12:55:28.335Z,29.20
2018-09-15T12:57:57.715Z,29.20
2018-09-15T13:00:26.939Z,32.70
2018-09-15T13:02:56.400Z,30.00
2018-09-15T13:05:25.876Z,29.60
2018-09-15T13:07:56.375Z,28.70
2018-09-15T13:10:27.971Z,29.00
2018-09-15T13:12:57.419Z,29.70
2018-09-15T13:15:26.645Z,30.70
2018-09-15T13:17:55.983Z,31.60
2018-09-15T13:20:27.472Z,32.30
2018-09-15T13:22:56.788Z,33.20
2018-09-15T13:25:26.100Z,34.90
2018-09-15T13:27:55.735Z,33.70
2018-09-15T13:30:26.242Z,33.50
2018-09-15T13:32:55.872Z,31.60
2018-09-15T13:35:32.785Z,32.90
2018-09-15T13:38:02.135Z,34.20
2018-09-15T13:40:31.709Z,35.90
2018-09-15T13:43:01.354Z,35.80
2018-09-15T13:45:30.659Z,33.20
2018-09-15T13:48:00.335Z,31.70
2018-09-15T13:50:29.907Z,31.90
2018-09-15T13:52:59.249Z,31.90
2018-09-15T13:55:28.755Z,30.20
2018-09-15T13:57:59.247Z,30.80
2018-09-15T14:00:30.715Z,32.30
2018-09-15T14:03:01.652Z,33.10
2018-09-15T14:05:31.528Z,33.80
2018-09-15T14:08:01.581Z,33.80
2018-09-15T14:10:32.070Z,34.10
2018-09-15T14:13:01.560Z,34.70
2018-09-15T14:15:30.963Z,35.60
2018-09-15T14:18:00.705Z,35.10
2018-09-15T14:20:30.185Z,35.70
2018-09-15T14:23:03.207Z,34.70
2018-09-15T14:25:33.215Z,35.00
2018-09-15T14:28:03.055Z,34.80
2018-09-15T14:30:32.628Z,35.30
2018-09-15T14:33:02.387Z,28.10
2018-09-15T14:35:31.776Z,28.30
2018-09-15T14:38:01.063Z,27.00
2018-09-15T14:40:31.959Z,28.00
2018-09-15T14:43:02.403Z,29.50
2018-09-15T14:45:31.664Z,30.40
2018-09-15T14:48:01.356Z,31.70
2018-09-15T14:50:31.321Z,35.10
2018-09-15T14:53:00.571Z,32.00
2018-09-15T14:55:29.772Z,31.30
2018-09-15T14:58:00.044Z,33.80
2018-09-15T15:00:30.809Z,32.90
2018-09-15T15:03:02.716Z,32.70
2018-09-15T15:05:32.297Z,32.90
2018-09-15T15:08:01.568Z,32.90
2018-09-15T15:10:30.940Z,33.50
2018-09-15T15:13:00.504Z,34.30
2018-09-15T15:15:30.147Z,30.70
2018-09-15T15:17:59.723Z,29.90
2018-09-15T15:20:29.195Z,29.60
2018-09-15T15:22:58.552Z,30.40
2018-09-15T15:25:27.872Z,31.00
2018-09-15T15:27:57.139Z,30.80
2018-09-15T15:30:26.528Z,30.70
2018-09-15T15:32:55.867Z,31.70
2018-09-15T15:35:25.355Z,32.70
2018-09-15T15:37:54.660Z,33.60
2018-09-15T15:40:24.088Z,34.30
2018-09-15T15:42:53.714Z,35.10
2018-09-15T15:45:23.183Z,35.10
2018-09-15T15:47:52.555Z,34.60
2018-09-15T15:50:21.794Z,33.70
2018-09-15T15:52:51.715Z,34.50
2018-09-15T15:55:21.156Z,34.10
2018-09-15T15:57:50.663Z,32.70
2018-09-15T16:00:19.945Z,31.40
2018-09-15T16:02:49.527Z,31.70
2018-09-15T16:05:18.822Z,32.40
2018-09-15T16:07:48.589Z,30.00
2018-09-15T16:10:18.115Z,30.00
2018-09-15T16:12:48.578Z,30.10
2018-09-15T16:15:17.846Z,30.10
2018-09-15T16:17:47.566Z,30.40
2018-09-15T16:20:17.206Z,30.80
2018-09-15T16:22:46.724Z,30.50
2018-09-15T16:25:16.723Z,31.10
2018-09-15T16:27:46.220Z,31.90
2018-09-15T16:30:15.843Z,31.40
2018-09-15T16:32:45.167Z,31.20
2018-09-15T16:35:18.541Z,31.30
2018-09-15T16:37:48.412Z,31.50
2018-09-15T16:40:18.155Z,31.10
2018-09-15T16:42:48.540Z,31.30
2018-09-15T16:45:18.130Z,32.30
2018-09-15T16:47:48.388Z,32.30
2018-09-15T16:50:18.080Z,32.50
2018-09-15T16:52:47.512Z,32.70
2018-09-15T16:55:16.806Z,32.70
2018-09-15T16:57:47.036Z,33.80
2018-09-15T17:00:16.917Z,33.90
2018-09-15T17:02:47.207Z,34.50
2018-09-15T17:05:16.516Z,34.40
2018-09-15T17:07:45.858Z,35.20
2018-09-15T17:10:16.412Z,34.80
2018-09-15T17:12:45.687Z,35.60
2018-09-15T17:15:14.928Z,35.30
2018-09-15T17:17:45.641Z,35.70
2018-09-15T17:20:15.048Z,35.80
2018-09-15T17:22:46.671Z,36.40
2018-09-15T17:25:16.115Z,35.60
2018-09-15T17:27:45.295Z,35.90
2018-09-15T17:30:14.719Z,36.00
2018-09-15T17:32:43.972Z,36.10
2018-09-15T17:35:17.770Z,36.50
2018-09-15T17:37:47.198Z,37.10
2018-09-15T17:40:16.400Z,37.00
2018-09-15T17:42:45.767Z,36.60
2018-09-15T17:45:14.993Z,37.00
2018-09-15T17:47:44.164Z,36.90
2018-09-15T17:50:14.680Z,36.90
2018-09-15T17:52:43.927Z,37.10
2018-09-15T17:55:13.133Z,36.90
2018-09-15T17:57:42.564Z,37.20
2018-09-15T18:00:11.861Z,37.10
2018-09-15T18:02:41.170Z,37.20
2018-09-15T18:05:11.619Z,37.30
2018-09-15T18:07:40.999Z,37.50
2018-09-15T18:10:10.581Z,37.40
2018-09-15T18:12:40.165Z,37.50
2018-09-15T18:15:10.879Z,37.30
2018-09-15T18:17:40.344Z,37.50
2018-09-15T18:20:10.589Z,37.60
2018-09-15T18:22:41.064Z,37.30
2018-09-15T18:25:10.423Z,37.70
2018-09-15T18:27:40.072Z,37.70
2018-09-15T18:30:10.528Z,37.70
2018-09-15T18:32:40.087Z,37.80
2018-09-15T18:35:11.595Z,37.80
2018-09-15T18:37:40.808Z,37.90
2018-09-15T18:40:10.197Z,38.00
2018-09-15T18:42:41.793Z,39.90
2018-09-15T18:45:10.983Z,40.50
2018-09-15T18:47:40.167Z,40.80
2018-09-15T18:50:09.437Z,40.60
2018-09-15T18:52:39.182Z,40.50
2018-09-15T18:55:09.723Z,41.10
2018-09-15T18:57:40.435Z,40.60
2018-09-15T19:00:09.816Z,40.00
2018-09-15T19:02:39.042Z,39.90
2018-09-15T19:05:10.379Z,39.90
2018-09-15T19:07:39.568Z,40.40
2018-09-15T19:10:08.868Z,40.70
2018-09-15T19:12:40.697Z,40.30
2018-09-15T19:15:11.147Z,40.40
2018-09-15T19:17:42.740Z,40.70
2018-09-15T19:20:12.279Z,40.90
2018-09-15T19:22:42.171Z,40.80
2018-09-15T19:25:13.232Z,41.10
2018-09-15T19:27:42.871Z,40.60
2018-09-15T19:30:14.360Z,40.70
2018-09-15T19:32:43.948Z,40.70
2018-09-15T19:35:13.147Z,40.80
2018-09-15T19:37:42.367Z,40.70
2018-09-15T19:40:11.936Z,41.40
2018-09-15T19:42:41.438Z,41.40
2018-09-15T19:45:11.019Z,42.00
2018-09-15T19:47:41.275Z,42.10
2018-09-15T19:50:12.667Z,42.90
2018-09-15T19:52:42.169Z,43.10
2018-09-15T19:55:11.711Z,42.60
2018-09-15T19:57:40.992Z,42.90
2018-09-15T20:00:12.120Z,43.00
2018-09-15T20:02:41.348Z,43.40
2018-09-15T20:05:10.994Z,43.40
2018-09-15T20:07:40.770Z,43.40
2018-09-15T20:10:10.207Z,43.80
2018-09-15T20:12:41.693Z,44.30
2018-09-15T20:15:31.003Z,44.00
2018-09-15T20:18:00.462Z,44.00
2018-09-15T20:20:28.619Z,43.70
2018-09-15T20:22:57.907Z,43.70
2018-09-15T20:25:27.310Z,43.50
2018-09-15T20:27:57.409Z,43.80
2018-09-15T20:30:26.865Z,43.60
2018-09-15T20:32:56.108Z,43.80
2018-09-15T20:35:25.322Z,43.70
2018-09-15T20:37:54.700Z,43.60
2018-09-15T20:40:24.046Z,43.60
2018-09-15T20:42:53.239Z,43.90
2018-09-15T20:45:22.438Z,43.90
2018-09-15T20:47:52.176Z,45.30
2018-09-15T20:50:22.779Z,45.00
2018-09-15T20:52:54.155Z,45.70
2018-09-15T20:55:23.408Z,46.40
2018-09-15T20:57:52.797Z,47.30
2018-09-15T21:00:22.330Z,46.80
2018-09-15T21:02:51.702Z,46.00
2018-09-15T21:05:20.924Z,46.20
2018-09-15T21:07:50.559Z,47.90
2018-09-15T21:10:19.753Z,48.10
2018-09-15T21:12:48.927Z,48.10
2018-09-15T21:15:18.184Z,48.50
2018-09-15T21:17:48.400Z,48.50
2018-09-15T21:20:17.594Z,48.60
2018-09-15T21:22:46.803Z,48.20
2018-09-15T21:25:16.417Z,49.40
2018-09-15T21:27:45.611Z,49.30
2018-09-15T21:30:14.988Z,48.50
2018-09-15T21:32:45.175Z,49.20
2018-09-15T21:35:14.930Z,49.40
2018-09-15T21:37:44.363Z,49.00
2018-09-15T21:40:13.648Z,49.80
2018-09-15T21:42:42.951Z,49.10
2018-09-15T21:45:12.456Z,51.10
2018-09-15T21:47:41.675Z,52.10
2018-09-15T21:50:10.869Z,51.30
2018-09-15T21:52:40.424Z,52.90
2018-09-15T21:55:09.679Z,51.50
2018-09-15T21:57:38.943Z,50.60
2018-09-15T22:00:10.088Z,52.90
2018-09-15T22:02:40.360Z,53.30
2018-09-15T22:05:11.884Z,51.80
2018-09-15T22:07:41.079Z,52.90
2018-09-15T22:10:10.349Z,50.90
2018-09-15T22:12:39.811Z,54.70
2018-09-15T22:15:15.200Z,53.50
2018-09-15T22:17:44.460Z,52.70
2018-09-15T22:20:13.655Z,53.50
2018-09-15T22:22:42.867Z,55.60
2018-09-15T22:25:12.095Z,53.10
2018-09-15T22:27:41.280Z,53.60
2018-09-15T22:30:10.585Z,52.50
2018-09-15T22:32:40.236Z,54.30
2018-09-15T22:35:09.399Z,52.90
2018-09-15T22:37:38.606Z,51.90
2018-09-15T22:40:07.837Z,51.70
2018-09-15T22:42:37.032Z,52.00
2018-09-15T22:45:06.261Z,52.80
2018-09-15T22:47:35.456Z,53.30
2018-09-15T22:50:05.212Z,53.30
2018-09-15T22:52:34.872Z,52.80
2018-09-15T22:55:04.588Z,52.40
2018-09-15T22:57:34.091Z,52.70
2018-09-15T23:00:03.344Z,52.60
2018-09-15T23:02:32.562Z,54.90
2018-09-15T23:05:01.822Z,54.70
2018-09-15T23:07:30.988Z,54.30
2018-09-15T23:10:00.195Z,55.20
2018-09-15T23:12:29.371Z,54.80
2018-09-15T23:14:58.536Z,55.90
2018-09-15T23:17:27.812Z,54.50
2018-09-15T23:19:56.984Z,56.20
2018-09-15T23:22:26.178Z,54.60
2018-09-15T23:24:55.381Z,56.50
2018-09-15T23:27:24.558Z,55.80
2018-09-15T23:29:53.763Z,57.80
2018-09-15T23:32:23.387Z,56.50
2018-09-15T23:34:52.591Z,57.00
2018-09-15T23:37:23.003Z,56.80
2018-09-15T23:39:52.272Z,56.90
2018-09-15T23:42:21.508Z,59.70
2018-09-15T23:44:50.671Z,58.50
2018-09-15T23:47:19.886Z,59.00
2018-09-15T23:49:49.123Z,58.90
2018-09-15T23:52:18.300Z,58.50
2018-09-15T23:54:47.557Z,58.40
2018-09-15T23:57:16.789Z,60.00
2018-09-15T23:59:46.166Z,60.70
